createdAt,value
2022-10-03T00:00:00.680Z,12.43
2022-10-03T00:01:00.664Z,12.43
2022-10-03T00:02:00.686Z,12.43
2022-10-03T00:03:00.667Z,12.49
2022-10-03T00:04:00.621Z,12.47
2022-10-03T00:05:00.631Z,12.49
2022-10-03T00:06:00.592Z,12.47
2022-10-03T00:07:00.591Z,12.47
2022-10-03T00:08:00.571Z,12.50
2022-10-03T00:09:00.561Z,12.54
2022-10-03T00:10:00.552Z,12.55
2022-10-03T00:11:00.573Z,12.50
2022-10-03T00:12:00.531Z,12.53
2022-10-03T00:13:00.521Z,12.53
2022-10-03T00:14:00.502Z,12.50
2022-10-03T00:15:00.499Z,12.53
2022-10-03T00:16:00.532Z,12.53
2022-10-03T00:17:00.492Z,12.53
2022-10-03T00:18:00.460Z,12.46
2022-10-03T00:19:00.450Z,12.42
2022-10-03T00:20:00.432Z,12.42
2022-10-03T00:21:00.421Z,12.46
2022-10-03T00:22:00.411Z,12.43
2022-10-03T00:23:00.422Z,12.39
2022-10-03T00:24:00.389Z,12.42
2022-10-03T00:25:00.382Z,12.45
2022-10-03T00:26:00.361Z,12.40
2022-10-03T00:27:00.361Z,12.37
2022-10-03T00:28:00.387Z,12.39
2022-10-03T00:29:00.351Z,12.32
2022-10-03T00:30:00.322Z,12.29
2022-10-03T00:31:00.367Z,12.29
2022-10-03T00:32:00.296Z,12.31
2022-10-03T00:33:00.292Z,12.29
2022-10-03T00:34:00.302Z,12.27
2022-10-03T00:35:00.261Z,12.25
2022-10-03T00:36:00.252Z,12.24
2022-10-03T00:37:00.241Z,12.21
2022-10-03T00:38:00.232Z,12.18
2022-10-03T00:39:00.221Z,12.17
2022-10-03T00:40:00.224Z,12.12
2022-10-03T00:41:00.199Z,12.12
2022-10-03T00:42:00.186Z,12.07
2022-10-03T00:43:00.171Z,12.06
2022-10-03T00:44:00.153Z,12.09
2022-10-03T00:45:00.162Z,12.04
2022-10-03T00:46:00.154Z,12.00
2022-10-03T00:47:00.229Z,12.00
2022-10-03T00:48:00.112Z,11.99
2022-10-03T00:49:00.103Z,12.02
2022-10-03T00:50:00.103Z,11.95
2022-10-03T00:51:00.085Z,11.90
2022-10-03T00:52:00.090Z,11.91
2022-10-03T00:53:00.074Z,11.87
2022-10-03T00:54:00.042Z,11.86
2022-10-03T00:55:00.031Z,11.84
2022-10-03T00:56:00.020Z,11.84
2022-10-03T00:57:00.013Z,11.83
2022-10-03T00:58:00.021Z,11.83
2022-10-03T00:58:59.991Z,11.83
2022-10-03T00:59:59.972Z,11.83
2022-10-03T01:00:59.999Z,11.80
2022-10-03T01:02:00.015Z,11.78
2022-10-03T01:02:59.961Z,11.78
2022-10-03T01:03:59.934Z,11.73
2022-10-03T01:04:59.926Z,11.72
2022-10-03T01:05:59.902Z,11.72
2022-10-03T01:06:59.893Z,11.72
2022-10-03T01:07:59.883Z,11.72
2022-10-03T01:08:59.892Z,11.70
2022-10-03T01:09:59.860Z,11.68
2022-10-03T01:10:59.853Z,11.62
2022-10-03T01:11:59.840Z,11.62
2022-10-03T01:12:59.831Z,11.62
2022-10-03T01:13:59.812Z,11.59
2022-10-03T01:14:59.822Z,11.55
2022-10-03T01:15:59.827Z,11.57
2022-10-03T01:16:59.782Z,11.57
2022-10-03T01:17:59.771Z,11.62
2022-10-03T01:18:59.762Z,11.60
2022-10-03T01:19:59.771Z,11.59
2022-10-03T01:20:59.733Z,11.52
2022-10-03T01:21:59.722Z,11.50
2022-10-03T01:22:59.712Z,11.50
2022-10-03T01:23:59.701Z,11.48
2022-10-03T01:24:59.693Z,11.43
2022-10-03T01:25:59.692Z,11.44
2022-10-03T01:26:59.671Z,11.40
2022-10-03T01:27:59.704Z,11.37
2022-10-03T01:28:59.642Z,11.40
2022-10-03T01:29:59.632Z,11.40
2022-10-03T01:30:59.687Z,11.40
2022-10-03T01:31:59.611Z,11.35
2022-10-03T01:32:59.601Z,11.32
2022-10-03T01:33:59.583Z,11.32
2022-10-03T01:34:59.579Z,11.29
2022-10-03T01:35:59.563Z,11.29
2022-10-03T01:36:59.573Z,11.27
2022-10-03T01:37:59.540Z,11.29
2022-10-03T01:38:59.532Z,11.27
2022-10-03T01:39:59.513Z,11.29
2022-10-03T01:40:59.511Z,11.25
2022-10-03T01:41:59.492Z,11.19
2022-10-03T01:42:59.502Z,11.22
2022-10-03T01:43:59.472Z,11.22
2022-10-03T01:44:59.460Z,11.19
2022-10-03T01:45:59.446Z,11.23
2022-10-03T01:46:59.532Z,11.17
2022-10-03T01:47:59.423Z,11.14
2022-10-03T01:48:59.431Z,11.18
2022-10-03T01:49:59.400Z,11.14
2022-10-03T01:50:59.393Z,11.11
2022-10-03T01:51:59.383Z,11.11
2022-10-03T01:52:59.372Z,11.10
2022-10-03T01:53:59.374Z,11.08
2022-10-03T01:54:59.343Z,11.08
2022-10-03T01:55:59.332Z,11.08
2022-10-03T01:56:59.323Z,11.04
2022-10-03T01:57:59.311Z,11.05
2022-10-03T01:58:59.301Z,10.99
2022-10-03T01:59:59.302Z,10.96
2022-10-03T02:00:59.360Z,10.97
2022-10-03T02:01:59.272Z,10.99
2022-10-03T02:02:59.253Z,10.94
2022-10-03T02:03:59.233Z,10.96
2022-10-03T02:04:59.242Z,10.92
2022-10-03T02:05:59.232Z,10.87
2022-10-03T02:06:59.212Z,10.87
2022-10-03T02:07:59.193Z,10.86
2022-10-03T02:08:59.188Z,10.86
2022-10-03T02:09:59.171Z,10.81
2022-10-03T02:10:59.184Z,10.76
2022-10-03T02:11:59.142Z,10.78
2022-10-03T02:12:59.143Z,10.79
2022-10-03T02:13:59.124Z,10.78
2022-10-03T02:14:59.112Z,10.69
2022-10-03T02:15:59.139Z,10.71
2022-10-03T02:16:59.115Z,10.71
2022-10-03T02:17:59.081Z,10.69
2022-10-03T02:18:59.071Z,10.67
2022-10-03T02:19:59.060Z,10.68
2022-10-03T02:20:59.049Z,10.68
2022-10-03T02:21:59.032Z,10.69
2022-10-03T02:22:59.042Z,10.69
2022-10-03T02:23:59.021Z,10.71
2022-10-03T02:24:59.002Z,10.74
2022-10-03T02:25:58.990Z,10.76
2022-10-03T02:26:58.981Z,10.72
2022-10-03T02:27:59.009Z,10.72
2022-10-03T02:28:58.981Z,10.71
2022-10-03T02:29:58.943Z,10.72
2022-10-03T02:30:58.931Z,10.71
2022-10-03T02:31:58.968Z,10.67
2022-10-03T02:32:58.912Z,10.69
2022-10-03T02:33:58.892Z,10.67
2022-10-03T02:34:58.912Z,10.67
2022-10-03T02:35:58.872Z,10.69
2022-10-03T02:36:58.872Z,10.68
2022-10-03T02:37:58.852Z,10.69
2022-10-03T02:38:58.854Z,10.69
2022-10-03T02:39:58.829Z,10.64
2022-10-03T02:40:58.841Z,10.61
2022-10-03T02:41:58.803Z,10.64
2022-10-03T02:42:58.803Z,10.64
2022-10-03T02:43:58.782Z,10.67
2022-10-03T02:44:58.773Z,10.63
2022-10-03T02:45:58.808Z,10.67
2022-10-03T02:46:58.769Z,10.68
2022-10-03T02:48:13.749Z,10.63
2022-10-03T02:48:59.733Z,10.61
2022-10-03T02:49:58.713Z,10.60
2022-10-03T02:50:58.710Z,10.61
2022-10-03T02:51:58.712Z,10.57
2022-10-03T02:52:58.683Z,10.57
2022-10-03T02:53:58.671Z,10.54
2022-10-03T02:54:58.661Z,10.60
2022-10-03T02:55:58.650Z,10.67
2022-10-03T02:56:58.641Z,10.54
2022-10-03T02:57:58.652Z,10.56
2022-10-03T02:58:58.622Z,10.57
2022-10-03T02:59:58.602Z,10.51
2022-10-03T03:00:58.664Z,10.49
2022-10-03T03:01:58.616Z,10.44
2022-10-03T03:02:58.571Z,10.41
2022-10-03T03:03:58.587Z,10.38
2022-10-03T03:04:58.551Z,10.35
2022-10-03T03:05:58.541Z,10.28
2022-10-03T03:06:58.521Z,10.23
2022-10-03T03:07:58.523Z,10.19
2022-10-03T03:08:58.522Z,10.15
2022-10-03T03:09:58.491Z,10.13
2022-10-03T03:10:58.479Z,10.04
2022-10-03T03:11:58.470Z,10.02
2022-10-03T03:12:58.456Z,10.01
2022-10-03T03:13:58.451Z,9.99
2022-10-03T03:14:58.450Z,9.99
2022-10-03T03:15:58.477Z,10.04
2022-10-03T03:16:58.411Z,10.10
2022-10-03T03:17:58.401Z,10.19
2022-10-03T03:18:58.389Z,10.23
2022-10-03T03:20:05.440Z,10.26
2022-10-03T03:20:58.360Z,10.28
2022-10-03T03:21:58.362Z,10.37
2022-10-03T03:22:58.349Z,10.44
2022-10-03T03:23:58.340Z,10.41
2022-10-03T03:24:58.320Z,10.41
2022-10-03T03:25:58.339Z,10.44
2022-10-03T03:26:58.300Z,10.53
2022-10-03T03:27:58.372Z,10.51
2022-10-03T03:28:58.271Z,10.53
2022-10-03T03:29:58.269Z,10.51
2022-10-03T03:30:58.251Z,10.56
2022-10-03T03:31:58.338Z,10.60
2022-10-03T03:32:58.228Z,10.60
2022-10-03T03:33:58.220Z,10.61
2022-10-03T03:34:58.208Z,10.61
2022-10-03T03:35:58.200Z,10.67
2022-10-03T03:36:58.209Z,10.72
2022-10-03T03:37:58.180Z,10.76
2022-10-03T03:38:58.160Z,10.81
2022-10-03T03:39:58.150Z,10.81
2022-10-03T03:40:58.150Z,10.79
2022-10-03T03:41:58.130Z,10.81
2022-10-03T03:42:58.140Z,10.81
2022-10-03T03:43:58.117Z,10.87
2022-10-03T03:44:58.098Z,10.86
2022-10-03T03:45:58.126Z,10.87
2022-10-03T03:46:58.070Z,10.82
2022-10-03T03:47:58.062Z,10.78
2022-10-03T03:48:58.062Z,10.82
2022-10-03T03:49:58.040Z,10.86
2022-10-03T03:50:58.040Z,10.82
2022-10-03T03:51:58.019Z,10.82
2022-10-03T03:52:58.000Z,10.84
2022-10-03T03:53:58.018Z,10.89
2022-10-03T03:54:57.980Z,10.93
2022-10-03T03:55:57.970Z,10.93
2022-10-03T03:56:57.950Z,10.94
2022-10-03T03:57:57.950Z,10.97
2022-10-03T03:58:57.940Z,11.02
2022-10-03T03:59:57.940Z,11.07
2022-10-03T04:00:57.954Z,11.10
2022-10-03T04:01:57.958Z,11.14
2022-10-03T04:02:57.890Z,11.19
2022-10-03T04:03:57.880Z,11.22
2022-10-03T04:04:57.920Z,11.18
2022-10-03T04:05:57.859Z,11.25
2022-10-03T04:06:57.845Z,11.22
2022-10-03T04:07:57.840Z,11.18
2022-10-03T04:08:57.820Z,11.22
2022-10-03T04:09:57.812Z,11.19
2022-10-03T04:10:57.809Z,11.19
2022-10-03T04:11:57.789Z,11.23
2022-10-03T04:12:57.770Z,11.27
2022-10-03T04:13:57.761Z,11.33
2022-10-03T04:14:57.761Z,11.35
2022-10-03T04:15:57.760Z,11.37
2022-10-03T04:16:57.756Z,11.36
2022-10-03T04:17:57.720Z,11.36
2022-10-03T04:18:57.706Z,11.41
2022-10-03T04:19:57.706Z,11.44
2022-10-03T04:20:57.681Z,11.48
2022-10-03T04:21:57.690Z,11.52
2022-10-03T04:22:57.660Z,11.50
2022-10-03T04:23:57.649Z,11.57
2022-10-03T04:24:57.638Z,11.63
2022-10-03T04:25:57.630Z,11.70
2022-10-03T04:26:57.610Z,11.73
2022-10-03T04:27:57.714Z,11.80
2022-10-03T04:28:57.589Z,11.81
2022-10-03T04:29:57.581Z,11.86
2022-10-03T04:30:57.570Z,11.86
2022-10-03T04:31:57.595Z,11.87
2022-10-03T04:32:57.550Z,11.88
2022-10-03T04:33:57.559Z,11.94
2022-10-03T04:34:57.522Z,11.99
2022-10-03T04:35:57.511Z,12.03
2022-10-03T04:36:57.498Z,12.07
2022-10-03T04:37:57.492Z,11.97
2022-10-03T04:38:57.470Z,11.97
2022-10-03T04:39:57.488Z,11.99
2022-10-03T04:40:57.450Z,12.00
2022-10-03T04:41:57.439Z,11.95
2022-10-03T04:42:57.428Z,11.94
2022-10-03T04:43:57.424Z,11.88
2022-10-03T04:44:57.409Z,11.87
2022-10-03T04:45:57.481Z,11.84
2022-10-03T04:46:57.381Z,11.81
2022-10-03T04:47:57.370Z,11.77
2022-10-03T04:48:57.359Z,11.77
2022-10-03T04:49:57.350Z,11.80
2022-10-03T04:50:57.344Z,11.77
2022-10-03T04:51:57.346Z,11.80
2022-10-03T04:52:57.314Z,11.83
2022-10-03T04:53:57.300Z,11.81
2022-10-03T04:54:57.290Z,11.80
2022-10-03T04:55:57.280Z,11.84
2022-10-03T04:56:57.280Z,11.86
2022-10-03T04:57:59.448Z,11.80
2022-10-03T04:58:58.240Z,11.77
2022-10-03T04:59:57.238Z,11.83
2022-10-03T05:00:57.268Z,11.88
2022-10-03T05:01:57.270Z,11.94
2022-10-03T05:02:57.212Z,11.90
2022-10-03T05:03:57.191Z,11.94
2022-10-03T05:04:57.170Z,11.99
2022-10-03T05:05:57.169Z,12.00
2022-10-03T05:06:57.150Z,12.00
2022-10-03T05:07:57.160Z,12.00
2022-10-03T05:08:57.130Z,12.00
2022-10-03T05:09:57.124Z,11.99
2022-10-03T05:10:57.109Z,12.02
2022-10-03T05:11:57.101Z,12.02
2022-10-03T05:12:57.085Z,12.00
2022-10-03T05:13:57.100Z,11.90
2022-10-03T05:14:57.060Z,11.86
2022-10-03T05:15:57.050Z,11.87
2022-10-03T05:16:57.129Z,11.90
2022-10-03T05:17:57.030Z,11.86
2022-10-03T05:18:57.030Z,11.90
2022-10-03T05:19:57.002Z,11.95
2022-10-03T05:20:56.991Z,11.99
2022-10-03T05:21:56.979Z,11.99
2022-10-03T05:22:56.960Z,11.95
2022-10-03T05:23:56.960Z,11.94
2022-10-03T05:24:56.970Z,11.94
2022-10-03T05:26:10.813Z,11.87
2022-10-03T05:26:57.920Z,11.87
2022-10-03T05:27:56.953Z,11.86
2022-10-03T05:28:56.899Z,11.86
2022-10-03T05:29:56.892Z,11.86
2022-10-03T05:30:56.898Z,11.87
2022-10-03T05:31:56.894Z,11.88
2022-10-03T05:32:56.854Z,11.90
2022-10-03T05:33:56.840Z,11.91
2022-10-03T05:34:56.830Z,11.90
2022-10-03T05:35:56.821Z,11.77
2022-10-03T05:36:56.820Z,11.69
2022-10-03T05:37:56.800Z,11.63
2022-10-03T05:38:56.780Z,11.51
2022-10-03T05:39:56.778Z,11.48
2022-10-03T05:40:56.760Z,11.43
2022-10-03T05:42:20.867Z,11.43
2022-10-03T05:42:57.739Z,11.43
2022-10-03T05:43:56.730Z,11.43
2022-10-03T05:44:56.711Z,11.44
2022-10-03T05:45:56.726Z,11.48
2022-10-03T05:46:56.691Z,11.51
2022-10-03T05:47:56.709Z,11.59
2022-10-03T05:48:56.670Z,11.63
2022-10-03T05:49:56.660Z,11.72
2022-10-03T05:50:56.649Z,11.77
2022-10-03T05:51:56.639Z,11.80
2022-10-03T05:52:56.620Z,11.81
2022-10-03T05:53:56.660Z,11.84
2022-10-03T05:54:56.600Z,11.86
2022-10-03T05:55:56.590Z,11.87
2022-10-03T05:56:56.582Z,11.88
2022-10-03T05:57:56.569Z,11.91
2022-10-03T05:58:56.559Z,11.91
2022-10-03T05:59:56.580Z,12.03
2022-10-03T06:00:56.670Z,12.06
2022-10-03T06:01:56.534Z,12.15
2022-10-03T06:02:56.613Z,12.21
2022-10-03T06:03:56.500Z,12.17
2022-10-03T06:04:56.489Z,12.21
2022-10-03T06:05:56.490Z,12.24
2022-10-03T06:06:56.459Z,12.25
2022-10-03T06:07:56.460Z,12.27
2022-10-03T06:08:56.440Z,12.28
2022-10-03T06:09:56.430Z,12.28
2022-10-03T06:10:56.440Z,12.27
2022-10-03T06:11:56.409Z,12.32
2022-10-03T06:12:56.391Z,12.32
2022-10-03T06:13:56.380Z,12.35
2022-10-03T06:14:56.369Z,12.31
2022-10-03T06:15:56.389Z,12.36
2022-10-03T06:16:56.369Z,12.31
2022-10-03T06:17:56.341Z,12.25
2022-10-03T06:18:56.320Z,12.32
2022-10-03T06:19:56.319Z,12.35
2022-10-03T06:20:56.304Z,12.40
2022-10-03T06:21:56.330Z,12.42
2022-10-03T06:22:56.280Z,12.43
2022-10-03T06:23:56.268Z,12.46
2022-10-03T06:24:56.250Z,12.46
2022-10-03T06:25:56.249Z,12.54
2022-10-03T06:26:56.230Z,12.57
2022-10-03T06:27:56.270Z,12.73
2022-10-03T06:28:56.210Z,12.87
2022-10-03T06:29:56.200Z,13.16
2022-10-03T06:30:56.233Z,13.39
2022-10-03T06:31:56.179Z,13.67
2022-10-03T06:32:56.171Z,13.95
2022-10-03T06:33:56.170Z,13.90
2022-10-03T06:34:56.140Z,13.83
2022-10-03T06:35:56.130Z,14.14
2022-10-03T06:36:56.119Z,14.55
2022-10-03T06:37:56.109Z,15.22
2022-10-03T06:38:56.120Z,15.83
2022-10-03T06:39:56.090Z,16.23
2022-10-03T06:40:56.077Z,16.49
2022-10-03T06:41:56.062Z,16.81
2022-10-03T06:42:56.052Z,16.76
2022-10-03T06:43:56.113Z,16.91
2022-10-03T06:44:56.041Z,17.14
2022-10-03T06:45:56.090Z,17.52
2022-10-03T06:46:56.002Z,18.04
2022-10-03T06:47:55.991Z,18.47
2022-10-03T06:48:55.986Z,18.43
2022-10-03T06:49:55.991Z,18.73
2022-10-03T06:50:55.959Z,18.99
2022-10-03T06:51:55.951Z,19.34
2022-10-03T06:52:55.932Z,19.59
2022-10-03T06:53:55.922Z,19.96
2022-10-03T06:54:55.912Z,20.28
2022-10-03T06:55:55.922Z,20.36
2022-10-03T06:56:55.882Z,20.62
2022-10-03T06:57:55.880Z,20.82
2022-10-03T06:58:55.863Z,20.58
2022-10-03T06:59:55.884Z,20.75
2022-10-03T07:00:56.050Z,21.05
2022-10-03T07:01:55.907Z,21.21
2022-10-03T07:02:55.895Z,21.24
2022-10-03T07:03:55.812Z,21.39
2022-10-03T07:04:55.793Z,21.76
2022-10-03T07:05:55.823Z,21.80
2022-10-03T07:06:55.792Z,22.00
2022-10-03T07:07:55.766Z,21.36
2022-10-03T07:08:55.753Z,20.85
2022-10-03T07:09:55.743Z,20.56
2022-10-03T07:10:55.727Z,20.37
2022-10-03T07:11:55.742Z,19.71
2022-10-03T07:12:55.705Z,19.02
2022-10-03T07:13:55.694Z,18.34
2022-10-03T07:14:55.687Z,18.20
2022-10-03T07:16:25.675Z,18.84
2022-10-03T07:16:56.746Z,19.30
2022-10-03T07:17:55.648Z,19.33
2022-10-03T07:18:55.645Z,18.75
2022-10-03T07:19:55.625Z,18.53
2022-10-03T07:20:55.615Z,18.31
2022-10-03T07:21:55.606Z,18.20
2022-10-03T07:22:55.616Z,17.94
2022-10-03T07:23:55.577Z,18.08
2022-10-03T07:24:55.566Z,17.94
2022-10-03T07:25:55.557Z,17.11
2022-10-03T07:26:55.549Z,16.57
2022-10-03T07:27:55.570Z,16.58
2022-10-03T07:28:55.577Z,16.68
2022-10-03T07:29:55.507Z,16.43
2022-10-03T07:30:55.542Z,16.71
2022-10-03T07:31:55.487Z,17.01
2022-10-03T07:32:55.477Z,17.12
2022-10-03T07:33:55.501Z,17.45
2022-10-03T07:34:55.499Z,17.23
2022-10-03T07:35:55.440Z,17.33
2022-10-03T07:36:55.429Z,17.41
2022-10-03T07:37:55.417Z,17.39
2022-10-03T07:38:55.411Z,17.23
2022-10-03T07:39:55.388Z,17.06
2022-10-03T07:40:55.408Z,16.69
2022-10-03T07:41:55.369Z,16.20
2022-10-03T07:42:55.368Z,15.65
2022-10-03T07:43:55.355Z,15.40
2022-10-03T07:44:55.340Z,15.27
2022-10-03T07:45:55.353Z,15.18
2022-10-03T07:46:55.339Z,15.37
2022-10-03T07:47:55.298Z,15.46
2022-10-03T07:48:55.290Z,15.27
2022-10-03T07:49:55.279Z,14.79
2022-10-03T07:50:55.460Z,14.50
2022-10-03T07:51:55.259Z,14.37
2022-10-03T07:52:55.271Z,14.37
2022-10-03T07:53:55.239Z,14.43
2022-10-03T07:54:55.230Z,14.47
2022-10-03T07:55:55.210Z,14.53
2022-10-03T07:56:55.200Z,14.60
2022-10-03T07:57:55.188Z,14.43
2022-10-03T07:58:55.199Z,14.20
2022-10-03T07:59:55.184Z,14.03
2022-10-03T08:00:55.151Z,13.72
2022-10-03T08:01:55.141Z,13.65
2022-10-03T08:02:55.178Z,13.60
2022-10-03T08:03:55.213Z,13.71
2022-10-03T08:04:55.111Z,13.65
2022-10-03T08:05:55.091Z,13.60
2022-10-03T08:06:55.089Z,13.72
2022-10-03T08:07:55.071Z,13.78
2022-10-03T08:08:55.063Z,13.86
2022-10-03T08:09:55.071Z,13.83
2022-10-03T08:10:55.042Z,13.92
2022-10-03T08:11:55.022Z,14.04
2022-10-03T08:12:55.022Z,14.08
2022-10-03T08:13:55.006Z,14.29
2022-10-03T08:14:55.000Z,14.81
2022-10-03T08:15:55.060Z,15.14
2022-10-03T08:16:54.992Z,15.19
2022-10-03T08:17:54.965Z,15.10
2022-10-03T08:18:54.950Z,15.09
2022-10-03T08:19:54.932Z,15.07
2022-10-03T08:20:54.951Z,15.00
2022-10-03T08:21:54.912Z,14.65
2022-10-03T08:22:54.903Z,14.77
2022-10-03T08:23:54.893Z,14.73
2022-10-03T08:24:57.358Z,14.45
2022-10-03T08:25:54.863Z,14.37
2022-10-03T08:26:54.902Z,14.43
2022-10-03T08:27:54.879Z,14.37
2022-10-03T08:28:54.833Z,14.51
2022-10-03T08:29:54.826Z,14.53
2022-10-03T08:30:54.861Z,14.60
2022-10-03T08:31:54.793Z,14.69
2022-10-03T08:32:54.824Z,14.62
2022-10-03T08:33:54.775Z,14.66
2022-10-03T08:34:54.775Z,14.55
2022-10-03T08:35:54.753Z,14.54
2022-10-03T08:36:54.743Z,14.63
2022-10-03T08:37:54.733Z,14.79
2022-10-03T08:38:54.744Z,14.78
2022-10-03T08:39:54.709Z,14.92
2022-10-03T08:40:54.694Z,15.49
2022-10-03T08:41:54.684Z,15.39
2022-10-03T08:42:54.674Z,15.19
2022-10-03T08:43:54.663Z,15.25
2022-10-03T08:44:54.664Z,15.19
2022-10-03T08:45:54.634Z,15.77
2022-10-03T08:46:54.662Z,16.20
2022-10-03T08:47:54.613Z,16.26
2022-10-03T08:48:54.606Z,16.38
2022-10-03T08:49:54.618Z,16.43
2022-10-03T08:50:54.584Z,16.24
2022-10-03T08:51:54.566Z,16.16
2022-10-03T08:52:54.555Z,15.92
2022-10-03T08:53:54.544Z,15.84
2022-10-03T08:54:54.535Z,16.10
2022-10-03T08:55:54.545Z,16.39
2022-10-03T08:56:54.515Z,16.71
2022-10-03T08:57:54.518Z,16.79
2022-10-03T08:58:54.494Z,16.56
2022-10-03T08:59:54.477Z,16.84
2022-10-03T09:00:54.466Z,17.49
2022-10-03T09:01:54.530Z,17.72
2022-10-03T09:03:13.968Z,17.98
2022-10-03T09:03:55.458Z,18.01
2022-10-03T09:04:54.429Z,18.16
2022-10-03T09:05:54.406Z,18.49
2022-10-03T09:07:16.159Z,18.93
2022-10-03T09:07:55.386Z,19.19
2022-10-03T09:08:54.377Z,19.31
2022-10-03T09:09:54.365Z,19.19
2022-10-03T09:10:54.356Z,19.07
2022-10-03T09:11:54.346Z,19.00
2022-10-03T09:12:54.387Z,18.99
2022-10-03T09:13:54.327Z,18.89
2022-10-03T09:14:54.317Z,18.81
2022-10-03T09:15:54.346Z,18.68
2022-10-03T09:16:54.290Z,18.68
2022-10-03T09:17:54.268Z,18.70
2022-10-03T09:18:54.278Z,18.63
2022-10-03T09:19:54.248Z,18.65
2022-10-03T09:21:01.348Z,18.58
2022-10-03T09:21:54.230Z,18.65
2022-10-03T09:22:54.229Z,18.83
2022-10-03T09:23:54.238Z,18.90
2022-10-03T09:24:54.205Z,18.73
2022-10-03T09:25:54.181Z,18.70
2022-10-03T09:26:54.171Z,18.88
2022-10-03T09:27:54.255Z,18.81
2022-10-03T09:28:54.150Z,18.80
2022-10-03T09:29:54.169Z,18.75
2022-10-03T09:30:54.203Z,18.83
2022-10-03T09:31:54.198Z,18.78
2022-10-03T09:32:54.111Z,18.66
2022-10-03T09:33:54.094Z,18.35
2022-10-03T09:34:54.083Z,18.19
2022-10-03T09:35:54.081Z,18.11
2022-10-03T09:36:54.062Z,18.01
2022-10-03T09:37:54.042Z,17.94
2022-10-03T09:38:54.032Z,17.97
2022-10-03T09:39:54.022Z,17.90
2022-10-03T09:40:54.033Z,17.98
2022-10-03T09:41:53.993Z,17.87
2022-10-03T09:42:53.992Z,17.76
2022-10-03T09:43:53.974Z,17.82
2022-10-03T09:44:53.973Z,17.86
2022-10-03T09:45:53.944Z,17.82
2022-10-03T09:46:54.017Z,17.78
2022-10-03T09:47:53.924Z,17.83
2022-10-03T09:48:53.913Z,17.85
2022-10-03T09:49:53.902Z,17.89
2022-10-03T09:50:53.894Z,17.98
2022-10-03T09:51:53.874Z,18.10
2022-10-03T09:52:53.874Z,18.16
2022-10-03T09:53:53.863Z,18.23
2022-10-03T09:54:53.853Z,18.43
2022-10-03T09:55:53.824Z,18.55
2022-10-03T09:56:53.825Z,18.63
2022-10-03T09:57:53.825Z,18.56
2022-10-03T09:58:53.795Z,18.50
2022-10-03T09:59:53.784Z,18.50
2022-10-03T10:00:53.807Z,18.43
2022-10-03T10:01:53.755Z,18.60
2022-10-03T10:02:53.745Z,18.88
2022-10-03T10:03:53.819Z,19.09
2022-10-03T10:04:55.663Z,19.26
2022-10-03T10:05:53.713Z,19.40
2022-10-03T10:06:53.705Z,19.48
2022-10-03T10:07:53.686Z,19.55
2022-10-03T10:08:53.677Z,19.71
2022-10-03T10:09:53.684Z,19.79
2022-10-03T10:10:53.656Z,19.70
2022-10-03T10:11:53.645Z,19.52
2022-10-03T10:12:53.647Z,19.51
2022-10-03T10:14:07.302Z,19.59
2022-10-03T10:14:54.700Z,19.49
2022-10-03T10:15:53.669Z,19.21
2022-10-03T10:16:53.916Z,18.88
2022-10-03T10:17:53.567Z,18.89
2022-10-03T10:18:53.568Z,19.08
2022-10-03T10:19:53.549Z,19.21
2022-10-03T10:20:53.558Z,19.45
2022-10-03T10:21:53.537Z,19.36
2022-10-03T10:22:53.517Z,19.30
2022-10-03T10:23:53.583Z,19.39
2022-10-03T10:24:53.502Z,19.36
2022-10-03T10:25:53.509Z,19.34
2022-10-03T10:26:53.468Z,19.22
2022-10-03T10:27:53.494Z,19.34
2022-10-03T10:28:53.448Z,19.37
2022-10-03T10:29:53.429Z,19.54
2022-10-03T10:30:53.429Z,19.85
2022-10-03T10:31:53.468Z,20.10
2022-10-03T10:32:53.408Z,20.40
2022-10-03T10:33:53.399Z,20.44
2022-10-03T10:34:53.381Z,20.50
2022-10-03T10:35:53.359Z,20.39
2022-10-03T10:36:53.364Z,20.18
2022-10-03T10:37:53.390Z,20.26
2022-10-03T10:38:53.333Z,20.24
2022-10-03T10:39:53.330Z,19.99
2022-10-03T10:40:53.313Z,19.94
2022-10-03T10:41:53.299Z,20.04
2022-10-03T10:42:53.291Z,19.63
2022-10-03T10:43:53.301Z,19.36
2022-10-03T10:44:53.272Z,19.27
2022-10-03T10:45:53.253Z,19.14
2022-10-03T10:46:53.272Z,19.19
2022-10-03T10:47:53.240Z,19.45
2022-10-03T10:48:53.222Z,19.58
2022-10-03T10:49:53.239Z,19.69
2022-10-03T10:50:53.202Z,19.77
2022-10-03T10:51:53.182Z,19.52
2022-10-03T10:52:53.183Z,19.30
2022-10-03T10:53:53.171Z,19.18
2022-10-03T10:54:53.154Z,19.19
2022-10-03T10:55:53.162Z,19.11
2022-10-03T10:56:53.133Z,18.99
2022-10-03T10:57:53.114Z,18.83
2022-10-03T10:58:53.112Z,18.88
2022-10-03T10:59:53.095Z,18.83
2022-10-03T11:00:53.129Z,18.88
2022-10-03T11:01:53.096Z,18.84
2022-10-03T11:02:53.064Z,18.80
2022-10-03T11:03:53.054Z,18.86
2022-10-03T11:04:53.109Z,18.74
2022-10-03T11:05:53.024Z,18.93
2022-10-03T11:06:53.024Z,19.04
2022-10-03T11:07:54.190Z,19.16
2022-10-03T11:08:52.995Z,19.18
2022-10-03T11:09:52.975Z,19.15
2022-10-03T11:10:52.974Z,19.30
2022-10-03T11:11:52.954Z,19.44
2022-10-03T11:12:52.947Z,19.51
2022-10-03T11:13:52.966Z,19.55
2022-10-03T11:14:52.925Z,19.56
2022-10-03T11:15:52.927Z,19.74
2022-10-03T11:16:52.973Z,20.10
2022-10-03T11:17:52.887Z,20.41
2022-10-03T11:18:52.884Z,19.95
2022-10-03T11:19:52.927Z,20.16
2022-10-03T11:20:52.897Z,20.28
2022-10-03T11:21:52.855Z,20.26
2022-10-03T11:22:52.836Z,20.22
2022-10-03T11:23:52.826Z,20.21
2022-10-03T11:24:52.807Z,19.96
2022-10-03T11:25:52.818Z,19.66
2022-10-03T11:26:52.789Z,19.49
2022-10-03T11:27:52.822Z,19.34
2022-10-03T11:28:52.759Z,19.29
2022-10-03T11:29:52.757Z,19.11
2022-10-03T11:30:52.738Z,19.21
2022-10-03T11:31:52.830Z,19.24
2022-10-03T11:32:52.717Z,19.33
2022-10-03T11:33:52.716Z,19.40
2022-10-03T11:34:52.698Z,19.49
2022-10-03T11:35:52.689Z,19.52
2022-10-03T11:36:52.678Z,19.58
2022-10-03T11:37:52.687Z,19.54
2022-10-03T11:38:52.651Z,19.49
2022-10-03T11:39:52.644Z,19.51
2022-10-03T11:40:52.630Z,19.39
2022-10-03T11:41:52.610Z,19.31
2022-10-03T11:42:52.599Z,19.31
2022-10-03T11:43:52.620Z,19.34
2022-10-03T11:44:52.584Z,19.31
2022-10-03T11:45:52.634Z,19.33
2022-10-03T11:46:52.560Z,19.27
2022-10-03T11:47:52.543Z,19.24
2022-10-03T11:48:52.532Z,19.26
2022-10-03T11:49:52.543Z,19.34
2022-10-03T11:50:52.510Z,19.37
2022-10-03T11:51:53.770Z,19.26
2022-10-03T11:52:52.482Z,19.11
2022-10-03T11:53:57.093Z,18.78
2022-10-03T11:54:53.471Z,18.81
2022-10-03T11:55:52.453Z,18.81
2022-10-03T11:56:52.433Z,18.74
2022-10-03T11:57:52.431Z,18.68
2022-10-03T11:58:52.412Z,18.66
2022-10-03T11:59:52.402Z,18.73
2022-10-03T12:00:52.414Z,18.88
2022-10-03T12:01:52.454Z,19.00
2022-10-03T12:02:52.533Z,19.16
2022-10-03T12:03:52.368Z,19.31
2022-10-03T12:04:52.342Z,19.52
2022-10-03T12:05:52.336Z,19.73
2022-10-03T12:06:52.332Z,19.96
2022-10-03T12:07:56.198Z,20.11
2022-10-03T12:08:53.293Z,20.18
2022-10-03T12:09:52.284Z,20.36
2022-10-03T12:10:52.263Z,20.56
2022-10-03T12:11:52.264Z,20.81
2022-10-03T12:12:52.264Z,20.96
2022-10-03T12:13:52.253Z,20.96
2022-10-03T12:14:52.224Z,21.00
2022-10-03T12:15:52.214Z,21.17
2022-10-03T12:16:52.284Z,21.36
2022-10-03T12:17:52.224Z,21.46
2022-10-03T12:18:52.184Z,21.37
2022-10-03T12:19:52.183Z,21.27
2022-10-03T12:20:52.153Z,21.09
2022-10-03T12:21:52.145Z,20.93
2022-10-03T12:22:52.135Z,20.90
2022-10-03T12:23:52.157Z,20.88
2022-10-03T12:24:52.115Z,20.88
2022-10-03T12:25:52.105Z,20.99
2022-10-03T12:26:52.096Z,21.05
2022-10-03T12:27:52.159Z,21.09
2022-10-03T12:28:52.064Z,21.12
2022-10-03T12:29:52.078Z,21.22
2022-10-03T12:30:52.049Z,21.29
2022-10-03T12:31:52.072Z,21.39
2022-10-03T12:32:52.017Z,21.54
2022-10-03T12:33:52.020Z,21.66
2022-10-03T12:34:52.027Z,21.61
2022-10-03T12:35:51.987Z,21.66
2022-10-03T12:36:51.970Z,21.66
2022-10-03T12:37:51.968Z,21.66
2022-10-03T12:38:52.021Z,21.66
2022-10-03T12:39:51.995Z,21.64
2022-10-03T12:40:51.960Z,21.69
2022-10-03T12:41:51.939Z,21.50
2022-10-03T12:42:51.935Z,21.35
2022-10-03T12:43:51.909Z,21.32
2022-10-03T12:44:51.888Z,21.35
2022-10-03T12:45:51.962Z,21.42
2022-10-03T12:46:51.879Z,21.29
2022-10-03T12:47:55.858Z,20.80
2022-10-03T12:48:51.839Z,20.60
2022-10-03T12:49:51.828Z,20.51
2022-10-03T12:50:51.819Z,20.47
2022-10-03T12:51:51.829Z,20.43